Time;durP1;ratioP1;P1;durP2;ratioP2;P2;SDS_P1;SDS_P2;PMS_P1;PMS_P2;Temp;Humidity;BMP_temperature;BMP_pressure;BME280_temperature;BME280_humidity;BME280_pressure;Samples;Min_cycle;Max_cycle;Signal;HPM_P1;HPM_P2
2022/04/19 00:00:01;;;;;;;4.23;3.93;;;9.90;76.30;;;;;;6131464;29;20498;-62
2022/04/19 00:03:06;;;;;;;4.37;4.07;;;9.90;77.50;;;;;;6130684;29;20483;-63
2022/04/19 00:06:09;;;;;;;4.23;3.90;;;9.80;78.70;;;;;;6130630;29;20630;-62
2022/04/19 00:09:12;;;;;;;4.20;3.80;;;9.90;79.50;;;;;;6131325;29;20980;-63
2022/04/19 00:12:15;;;;;;;4.80;4.10;;;9.90;80.20;;;;;;6130615;29;20472;-63
2022/04/19 00:15:18;;;;;;;4.90;4.13;;;9.80;80.70;;;;;;6130373;29;20487;-63
2022/04/19 00:18:23;;;;;;;3.70;3.40;;;9.80;80.50;;;;;;6130406;29;20468;-62
2022/04/19 00:21:27;;;;;;;3.80;3.47;;;9.80;80.70;;;;;;6130409;29;20480;-63
2022/04/19 00:24:30;;;;;;;4.40;4.00;;;9.90;81.20;;;;;;6130015;29;20483;-62
2022/04/19 00:27:34;;;;;;;3.90;3.60;;;10.00;80.30;;;;;;6130016;29;20980;-61
2022/04/19 00:30:37;;;;;;;4.00;3.70;;;10.00;80.70;;;;;;6130422;29;20475;-63
2022/04/19 00:33:44;;;;;;;4.23;3.83;;;10.00;81.30;;;;;;6130449;29;20482;-62
2022/04/19 00:36:47;;;;;;;4.00;3.70;;;10.00;82.30;;;;;;6130128;29;20431;-62
2022/04/19 00:39:50;;;;;;;4.73;4.33;;;10.00;82.70;;;;;;6130341;29;20463;-64
2022/04/19 00:42:54;;;;;;;3.90;3.60;;;10.00;82.70;;;;;;6129760;29;20475;-64
2022/04/19 00:45:57;;;;;;;3.90;3.60;;;10.00;83.20;;;;;;6129519;29;20488;-62
2022/04/19 00:49:02;;;;;;;4.30;3.90;;;10.00;84.20;;;;;;6130833;29;20526;-62
2022/04/19 00:52:07;;;;;;;4.97;4.57;;;10.00;84.80;;;;;;6129068;29;20512;-62
2022/04/19 00:55:11;;;;;;;4.40;4.00;;;10.00;85.70;;;;;;6120848;29;20843;-61
2022/04/19 00:58:14;;;;;;;4.43;4.13;;;10.00;86.30;;;;;;6106130;29;20558;-63
2022/04/19 01:01:17;;;;;;;5.40;4.33;;;10.00;87.40;;;;;;6106218;29;20479;-63
2022/04/19 01:04:22;;;;;;;4.17;3.77;;;10.00;87.80;;;;;;6096981;29;20572;-65
2022/04/19 01:07:25;;;;;;;3.90;3.60;;;10.00;88.20;;;;;;6101999;29;20483;-64
2022/04/19 01:10:29;;;;;;;5.83;5.43;;;9.90;89.80;;;;;;6114590;29;20468;-62
2022/04/19 01:13:31;;;;;;;4.53;4.13;;;9.80;90.10;;;;;;6115237;29;21036;-64
2022/04/19 01:16:35;;;;;;;5.17;4.77;;;9.70;90.60;;;;;;6114326;29;20479;-63
2022/04/19 01:19:39;;;;;;;5.97;4.50;;;9.60;91.00;;;;;;6114652;29;20476;-64
2022/04/19 01:22:44;;;;;;;5.00;4.50;;;9.60;91.20;;;;;;6116968;29;20489;-64
2022/04/19 01:25:47;;;;;;;4.20;3.90;;;9.50;91.50;;;;;;6116628;29;20471;-64
2022/04/19 01:28:50;;;;;;;5.43;5.03;;;9.60;91.70;;;;;;6115220;29;20473;-63
2022/04/19 01:31:55;;;;;;;4.97;4.57;;;9.50;91.60;;;;;;6120109;29;20483;-64
2022/04/19 01:35:13;;;;;;;4.70;4.40;;;9.50;92.20;;;;;;6128853;29;20483;-63
2022/04/19 01:38:18;;;;;;;5.60;5.20;;;9.60;92.70;;;;;;6132902;29;20476;-61
2022/04/19 01:41:21;;;;;;;6.07;5.13;;;9.60;92.60;;;;;;6133720;29;20486;-62
2022/04/19 01:44:24;;;;;;;5.70;5.20;;;9.60;92.60;;;;;;6133577;29;20490;-62
2022/04/19 01:47:27;;;;;;;6.03;5.57;;;9.60;92.50;;;;;;6133740;29;20490;-63
2022/04/19 01:50:31;;;;;;;7.00;5.70;;;9.50;92.00;;;;;;6133907;29;20772;-60
2022/04/19 01:53:35;;;;;;;5.70;5.40;;;9.40;92.10;;;;;;6133486;29;20483;-61
2022/04/19 01:56:38;;;;;;;5.57;5.07;;;9.30;92.20;;;;;;6133879;29;20479;-61
2022/04/19 01:59:42;;;;;;;4.90;4.50;;;9.20;92.30;;;;;;6126122;29;20490;-64
2022/04/19 02:02:46;;;;;;;7.60;4.90;;;9.20;92.40;;;;;;6135563;29;20809;-62
2022/04/19 02:05:49;;;;;;;4.60;4.30;;;9.30;92.90;;;;;;6133825;29;20489;-61
2022/04/19 02:08:53;;;;;;;5.33;4.90;;;9.40;93.20;;;;;;6134443;29;20483;-63
2022/04/19 02:11:56;;;;;;;6.10;5.03;;;9.40;93.20;;;;;;6133504;29;20475;-62
2022/04/19 02:15:00;;;;;;;5.07;4.57;;;9.50;93.00;;;;;;6133183;29;20778;-62
2022/04/19 02:18:03;;;;;;;4.83;4.43;;;9.50;93.00;;;;;;6133192;29;20472;-62
2022/04/19 02:21:07;;;;;;;5.47;4.97;;;9.60;93.00;;;;;;6133866;29;20976;-61
2022/04/19 02:24:11;;;;;;;4.67;4.33;;;9.60;92.60;;;;;;6133053;29;20475;-61
2022/04/19 02:27:15;;;;;;;4.97;4.57;;;9.60;92.80;;;;;;6133071;29;20986;-61
2022/04/19 02:30:18;;;;;;;6.17;4.87;;;9.60;93.50;;;;;;6133947;29;20480;-63
2022/04/19 02:33:21;;;;;;;5.40;5.00;;;9.60;92.90;;;;;;6132698;29;20816;-62
2022/04/19 02:36:24;;;;;;;4.77;4.47;;;9.50;93.60;;;;;;6132929;29;20472;-62
2022/04/19 02:39:30;;;;;;;4.90;4.40;;;9.60;94.00;;;;;;6132757;29;20992;-62
2022/04/19 02:42:33;;;;;;;5.83;5.27;;;9.60;94.40;;;;;;6132563;29;20487;-62
2022/04/19 02:45:36;;;;;;;5.70;5.20;;;9.70;94.80;;;;;;6132628;29;20459;-61
2022/04/19 02:48:39;;;;;;;5.20;4.80;;;9.70;95.10;;;;;;6131171;29;20487;-61
2022/04/19 02:51:42;;;;;;;5.73;5.10;;;9.70;95.50;;;;;;6133203;29;20448;-61
2022/04/19 02:54:47;;;;;;;5.87;5.37;;;9.70;95.80;;;;;;6132510;29;20793;-62
2022/04/19 02:57:50;;;;;;;6.97;5.23;;;9.70;96.20;;;;;;6132593;29;20451;-62
2022/04/19 03:00:53;;;;;;;6.07;5.60;;;9.60;96.60;;;;;;6127897;29;20454;-62
2022/04/19 03:03:57;;;;;;;5.83;5.43;;;9.60;97.00;;;;;;6132945;29;20507;-62
2022/04/19 03:07:01;;;;;;;6.00;5.53;;;9.60;97.40;;;;;;6132699;29;20491;-62
2022/04/19 03:10:06;;;;;;;5.97;5.57;;;9.60;97.80;;;;;;6133190;29;20487;-62
2022/04/19 03:13:10;;;;;;;6.37;5.87;;;9.60;98.20;;;;;;6132023;29;20494;-62
2022/04/19 03:16:13;;;;;;;5.60;5.10;;;9.60;98.30;;;;;;6132282;29;20487;-62
2022/04/19 03:19:16;;;;;;;6.37;5.87;;;9.60;98.40;;;;;;6131922;29;20479;-63
2022/04/19 03:22:19;;;;;;;5.40;5.00;;;9.60;98.10;;;;;;6132078;29;20483;-65
2022/04/19 03:28:45;;;;;;;6.17;5.67;;;9.50;97.90;;;;;;6131860;29;20560;-64
2022/04/19 03:31:49;;;;;;;5.90;5.40;;;9.40;98.30;;;;;;6131275;29;20475;-63
2022/04/19 03:34:53;;;;;;;6.70;6.10;;;9.40;99.00;;;;;;6131463;29;20476;-64
2022/04/19 03:37:56;;;;;;;6.77;6.20;;;9.40;98.80;;;;;;6131681;29;20471;-62
2022/04/19 03:41:00;;;;;;;6.53;5.33;;;9.50;99.10;;;;;;6131441;29;20486;-61
2022/04/19 03:44:03;;;;;;;5.80;5.20;;;9.40;99.30;;;;;;6131563;29;20479;-64
2022/04/19 03:47:09;;;;;;;7.30;6.60;;;9.40;99.50;;;;;;6131852;29;20479;-61
2022/04/19 03:50:13;;;;;;;6.30;5.80;;;9.40;99.70;;;;;;6131429;29;20996;-62
2022/04/19 03:53:16;;;;;;;6.60;6.10;;;9.40;99.70;;;;;;6130806;29;20498;-62
2022/04/19 03:56:22;;;;;;;6.70;6.10;;;9.40;99.90;;;;;;6131265;29;20483;-62
2022/04/19 03:59:25;;;;;;;7.40;6.80;;;9.40;99.90;;;;;;6131067;29;20475;-61
2022/04/19 04:02:28;;;;;;;6.77;6.27;;;9.30;99.90;;;;;;6130788;29;20562;-62
2022/04/19 04:05:31;;;;;;;6.30;5.80;;;9.30;99.90;;;;;;6130654;29;20486;-62
2022/04/19 04:08:34;;;;;;;7.00;6.50;;;9.30;99.90;;;;;;6130729;29;20491;-62
2022/04/19 04:11:39;;;;;;;5.90;5.40;;;9.30;99.90;;;;;;6130379;29;20864;-61
2022/04/19 04:14:43;;;;;;;6.80;6.10;;;9.30;99.90;;;;;;6130358;29;20512;-61
2022/04/19 04:17:46;;;;;;;6.43;5.83;;;9.20;99.90;;;;;;6130364;29;20539;-61
2022/04/19 04:20:49;;;;;;;7.10;6.40;;;9.10;99.90;;;;;;6130469;29;20479;-61
2022/04/19 04:23:52;;;;;;;6.90;6.30;;;9.10;99.90;;;;;;6130383;29;20483;-61
2022/04/19 04:26:57;;;;;;;6.63;6.10;;;9.10;99.90;;;;;;6130595;29;20487;-64
2022/04/19 04:30:00;;;;;;;7.20;6.70;;;9.10;99.90;;;;;;6130402;29;20480;-65
2022/04/19 04:33:04;;;;;;;7.13;6.60;;;9.10;99.90;;;;;;6130339;29;20483;-65
2022/04/19 04:36:07;;;;;;;7.03;6.53;;;9.10;99.90;;;;;;6129995;29;20490;-64
2022/04/19 04:39:10;;;;;;;8.00;6.90;;;9.10;99.90;;;;;;6130290;29;20480;-64
2022/04/19 04:42:14;;;;;;;8.13;6.50;;;9.00;99.90;;;;;;6130255;29;20494;-63
2022/04/19 04:45:17;;;;;;;7.73;7.10;;;8.90;99.90;;;;;;6130157;29;20557;-63
2022/04/19 04:51:41;;;;;;;7.43;6.83;;;8.90;99.90;;;;;;6131365;29;20455;-64
2022/04/19 04:54:44;;;;;;;8.00;7.40;;;8.90;99.90;;;;;;6132103;29;20948;-64
2022/04/19 04:57:48;;;;;;;7.90;7.20;;;8.90;99.90;;;;;;6131107;29;20551;-63
2022/04/19 05:00:51;;;;;;;8.47;7.77;;;8.90;99.90;;;;;;6132731;29;20444;-63
2022/04/19 05:03:58;;;;;;;10.27;8.97;;;8.90;99.90;;;;;;6130390;29;21011;-61
2022/04/19 05:07:02;;;;;;;9.60;8.60;;;8.80;99.90;;;;;;6131114;29;20482;-63
2022/04/19 05:10:06;;;;;;;9.37;8.53;;;8.70;99.90;;;;;;6120697;29;20476;-63
2022/04/19 05:13:10;;;;;;;7.13;6.43;;;8.50;99.90;;;;;;6129470;29;20472;-62
2022/04/19 05:16:13;;;;;;;7.70;7.03;;;8.50;99.90;;;;;;6129610;29;20468;-62
2022/04/19 05:19:17;;;;;;;7.10;6.50;;;8.40;99.90;;;;;;6129634;29;20475;-62
2022/04/19 05:22:21;;;;;;;7.00;6.37;;;8.50;99.90;;;;;;6129557;29;20550;-63
2022/04/19 05:25:24;;;;;;;6.60;6.10;;;8.30;99.90;;;;;;6129464;29;20467;-63
2022/04/19 05:28:28;;;;;;;6.43;5.60;;;8.20;99.90;;;;;;6129415;29;20506;-63
2022/04/19 05:31:31;;;;;;;6.50;5.37;;;8.20;99.90;;;;;;6129119;29;20491;-64
2022/04/19 05:34:35;;;;;;;6.00;5.47;;;8.20;99.90;;;;;;6129576;29;20827;-64
2022/04/19 05:37:38;;;;;;;9.00;5.80;;;8.30;99.90;;;;;;6129083;29;20475;-64
2022/04/19 05:40:41;;;;;;;5.60;5.17;;;8.30;99.90;;;;;;6130191;29;20482;-65
2022/04/19 05:43:46;;;;;;;5.83;5.43;;;8.40;99.90;;;;;;6129323;29;20479;-63
2022/04/19 05:46:51;;;;;;;5.87;5.47;;;8.50;99.90;;;;;;6129405;29;20476;-63
2022/04/19 05:49:54;;;;;;;6.53;6.00;;;8.60;99.90;;;;;;6130753;29;20487;-63
2022/04/19 05:52:57;;;;;;;5.87;5.37;;;8.70;99.90;;;;;;6129194;29;20475;-62
2022/04/19 05:56:00;;;;;;;5.53;5.13;;;8.80;99.90;;;;;;6128836;29;20882;-61
2022/04/19 05:59:04;;;;;;;5.40;4.90;;;8.90;99.90;;;;;;6130271;29;20797;-64
2022/04/19 06:05:28;;;;;;;5.30;4.77;;;9.00;99.90;;;;;;6129502;29;20919;-62
2022/04/19 06:08:31;;;;;;;6.87;6.27;;;9.00;99.90;;;;;;6128719;29;20997;-63
2022/04/19 06:11:34;;;;;;;5.60;5.10;;;9.00;99.90;;;;;;6128729;29;20823;-62
2022/04/19 06:14:39;;;;;;;6.57;5.97;;;9.00;99.90;;;;;;6124222;29;20487;-62
2022/04/19 06:17:42;;;;;;;5.80;5.30;;;9.00;99.90;;;;;;6128200;29;20802;-62
2022/04/19 06:20:45;;;;;;;6.67;6.10;;;8.90;99.90;;;;;;6129434;29;20479;-63
2022/04/19 06:23:48;;;;;;;8.07;7.47;;;8.90;99.90;;;;;;6132312;29;20483;-61
2022/04/19 06:26:51;;;;;;;6.73;6.13;;;9.00;99.90;;;;;;6133029;29;20489;-61
2022/04/19 06:29:57;;;;;;;6.30;5.73;;;9.00;99.90;;;;;;6132978;29;20802;-61
2022/04/19 06:33:01;;;;;;;5.43;5.03;;;9.00;99.90;;;;;;6132999;29;20502;-63
2022/04/19 06:36:05;;;;;;;5.50;5.10;;;9.00;99.90;;;;;;6133328;29;20483;-62
2022/04/19 06:39:08;;;;;;;4.77;3.80;;;9.00;99.90;;;;;;6133806;29;20483;-63
2022/04/19 06:42:11;;;;;;;4.83;4.43;;;9.10;99.30;;;;;;6133973;29;20490;-61
2022/04/19 06:45:17;;;;;;;4.57;4.27;;;9.10;99.10;;;;;;6131180;29;20506;-61
2022/04/19 06:48:20;;;;;;;4.77;4.40;;;9.00;99.00;;;;;;6131766;29;20486;-61
2022/04/19 06:51:25;;;;;;;5.00;4.60;;;9.10;99.20;;;;;;6132293;29;20463;-61
2022/04/19 06:54:35;;;;;;;4.87;4.47;;;9.10;99.20;;;;;;6134008;29;20482;-62
2022/04/19 06:57:39;;;;;;;4.47;4.07;;;9.20;99.10;;;;;;6133437;29;20478;-63
2022/04/19 07:00:45;;;;;;;4.17;3.87;;;9.30;99.20;;;;;;6133410;29;20520;-61
2022/04/19 07:03:48;;;;;;;4.50;4.20;;;9.20;98.50;;;;;;6132380;29;20472;-61
2022/04/19 07:06:51;;;;;;;4.40;4.00;;;9.30;98.40;;;;;;6132680;29;20752;-61
2022/04/19 07:09:54;;;;;;;4.23;3.93;;;9.30;98.30;;;;;;6132688;29;20500;-62
2022/04/19 07:12:57;;;;;;;4.50;4.20;;;9.40;98.30;;;;;;6132003;29;20805;-62
2022/04/19 07:16:02;;;;;;;4.90;4.50;;;9.40;98.20;;;;;;6131675;29;20479;-63
2022/04/19 07:19:06;;;;;;;5.10;4.70;;;9.40;98.30;;;;;;6131850;29;20971;-62
2022/04/19 07:28:49;;;;;;;5.70;5.30;;;9.40;98.80;;;;;;6134826;29;20468;-63
2022/04/19 07:31:54;;;;;;;5.90;5.30;;;9.40;98.90;;;;;;6134371;29;21011;-64
2022/04/19 07:34:58;;;;;;;8.50;5.50;;;9.40;99.10;;;;;;6133461;29;20486;-63
2022/04/19 07:38:02;;;;;;;5.23;4.10;;;9.40;99.30;;;;;;6132953;29;20476;-64
2022/04/19 07:41:06;;;;;;;4.53;4.00;;;9.40;99.30;;;;;;6132307;29;20502;-63
2022/04/19 07:44:09;;;;;;;4.67;4.27;;;9.30;98.80;;;;;;6112783;29;20843;-63
2022/04/19 07:47:15;;;;;;;3.40;3.20;;;9.40;98.80;;;;;;6109153;29;20937;-63
2022/04/19 07:50:18;;;;;;;3.60;3.37;;;9.40;98.60;;;;;;6109515;29;20488;-63
2022/04/19 07:53:21;;;;;;;2.90;2.70;;;9.30;98.20;;;;;;6086239;29;20481;-63
2022/04/19 07:56:24;;;;;;;3.67;3.37;;;9.40;98.30;;;;;;6108173;29;20476;-64
2022/04/19 07:59:27;;;;;;;3.53;3.30;;;9.40;98.00;;;;;;6115203;29;20480;-65
2022/04/19 08:02:32;;;;;;;3.87;3.57;;;9.40;98.40;;;;;;6132651;29;20483;-66
2022/04/19 08:05:35;;;;;;;4.30;3.40;;;9.30;97.90;;;;;;6136510;29;20480;-63
2022/04/19 08:08:40;;;;;;;4.00;3.70;;;9.30;98.10;;;;;;6129229;29;20487;-65
2022/04/19 08:11:43;;;;;;;4.17;3.90;;;9.30;97.70;;;;;;6127970;29;20468;-65
2022/04/19 08:14:46;;;;;;;9.90;9.00;;;9.40;97.70;;;;;;6129829;29;20494;-64
2022/04/19 08:17:51;;;;;;;4.30;4.00;;;9.30;97.60;;;;;;6132388;29;20481;-64
2022/04/19 08:20:55;;;;;;;3.50;3.20;;;9.40;97.50;;;;;;6134853;29;20957;-63
2022/04/19 08:23:58;;;;;;;4.50;4.20;;;9.30;97.50;;;;;;6130246;29;20482;-64
2022/04/19 08:27:01;;;;;;;3.60;3.30;;;9.30;97.70;;;;;;6129855;29;20482;-64
2022/04/19 08:30:05;;;;;;;3.90;3.50;;;9.30;97.90;;;;;;6133372;29;20484;-65
2022/04/19 08:33:10;;;;;;;4.47;4.17;;;9.30;98.50;;;;;;6129293;29;20841;-64
2022/04/19 08:36:13;;;;;;;3.37;3.17;;;9.30;98.50;;;;;;6131425;29;20795;-65
2022/04/19 08:39:16;;;;;;;3.63;3.43;;;9.40;98.70;;;;;;6130438;29;20491;-63
2022/04/19 08:42:20;;;;;;;3.67;3.40;;;9.40;97.80;;;;;;6129204;29;20494;-65
2022/04/19 08:45:26;;;;;;;3.60;3.40;;;9.20;98.10;;;;;;6139820;28;21188;-64
2022/04/19 08:48:31;;;;;;;4.20;3.90;;;9.30;97.40;;;;;;6138623;29;20489;-63
2022/04/19 08:51:37;;;;;;;3.37;3.07;;;9.20;97.30;;;;;;6142387;29;20480;-63
2022/04/19 08:58:01;;;;;;;4.03;3.73;;;9.20;97.80;;;;;;6155000;29;20527;-64
2022/04/19 09:01:05;;;;;;;3.30;3.10;;;9.30;97.90;;;;;;6146002;29;20995;-65
2022/04/19 09:04:10;;;;;;;3.73;3.43;;;9.30;98.10;;;;;;6134369;29;20472;-66
2022/04/19 09:07:13;;;;;;;3.63;3.37;;;9.20;98.30;;;;;;6134808;29;20464;-64
2022/04/19 09:10:25;;;;;;;4.20;3.90;;;9.10;98.40;;;;;;6133650;29;20837;-64
2022/04/19 09:13:28;;;;;;;3.77;3.50;;;9.20;98.50;;;;;;6128280;29;20486;-64
2022/04/19 09:16:31;;;;;;;3.73;3.53;;;9.30;98.60;;;;;;6128169;29;20494;-64
2022/04/19 09:19:37;;;;;;;4.77;4.27;;;9.40;98.80;;;;;;6148223;29;20549;-64
2022/04/19 09:22:42;;;;;;;4.43;4.07;;;9.50;98.10;;;;;;6144869;29;20845;-64
2022/04/19 09:25:45;;;;;;;4.20;3.90;;;9.60;98.20;;;;;;6122007;29;20489;-62
2022/04/19 09:29:12;;;;;;;4.90;4.50;;;9.60;98.10;;;;;;6130158;29;20480;-64
2022/04/19 09:32:15;;;;;;;4.37;4.00;;;9.40;97.90;;;;;;6129581;29;20491;-63
2022/04/19 09:35:29;;;;;;;3.70;3.50;;;9.20;98.80;;;;;;6116504;29;20472;-64
2022/04/19 09:38:36;;;;;;;4.53;4.23;;;9.30;99.40;;;;;;6132168;29;20961;-64
2022/04/19 09:41:40;;;;;;;4.07;3.87;;;9.40;99.30;;;;;;6132492;29;20486;-64
2022/04/19 09:44:45;;;;;;;4.13;3.83;;;9.40;98.80;;;;;;6131175;29;20502;-64
2022/04/19 09:47:52;;;;;;;4.20;3.53;;;9.50;98.90;;;;;;6130906;29;20484;-64
2022/04/19 09:51:02;;;;;;;4.00;3.70;;;9.60;98.40;;;;;;6131430;29;20472;-64
2022/04/19 09:54:08;;;;;;;3.67;3.47;;;9.60;98.30;;;;;;6154408;28;20487;-65
2022/04/19 09:57:12;;;;;;;3.27;3.07;;;9.60;98.40;;;;;;6161779;28;20475;-64
2022/04/19 10:00:17;;;;;;;7.40;6.90;;;9.70;97.90;;;;;;6166174;29;20478;-65
2022/04/19 10:10:07;;;;;;;6.93;3.60;;;9.80;98.50;;;;;;6156105;29;20470;-61
2022/04/19 10:13:13;;;;;;;3.30;3.10;;;9.70;97.70;;;;;;6155756;29;20487;-61
2022/04/19 10:16:16;;;;;;;3.30;3.10;;;9.70;98.30;;;;;;6154817;29;20475;-61
2022/04/19 10:19:20;;;;;;;3.20;3.00;;;9.90;98.60;;;;;;6137531;29;20955;-61
2022/04/19 10:22:26;;;;;;;4.03;3.73;;;10.00;97.30;;;;;;6131411;29;20495;-62
2022/04/19 10:25:40;;;;;;;3.17;2.97;;;10.00;97.20;;;;;;6131804;29;20475;-60
2022/04/19 10:28:45;;;;;;;3.40;3.20;;;10.00;97.20;;;;;;6126235;29;20490;-60
2022/04/19 10:32:01;;;;;;;3.07;2.87;;;9.60;97.80;;;;;;6131273;29;20471;-60
2022/04/19 10:35:06;;;;;;;2.60;2.40;;;9.50;97.80;;;;;;6130752;29;20479;-60
2022/04/19 10:38:23;;;;;;;3.67;3.47;;;9.40;98.30;;;;;;6130714;29;20858;-61
2022/04/19 10:41:47;;;;;;;3.30;3.00;;;9.60;98.80;;;;;;6131135;29;20475;-61
2022/04/19 10:44:52;;;;;;;4.03;3.63;;;9.70;98.70;;;;;;6115881;29;20493;-61
2022/04/19 10:48:08;;;;;;;3.13;2.93;;;9.80;98.50;;;;;;6107477;29;20477;-60
2022/04/19 10:51:29;;;;;;;4.53;4.13;;;9.80;98.10;;;;;;6117065;29;20495;-61
2022/04/19 10:55:07;;;;;;;4.50;4.20;;;9.70;98.50;;;;;;6132123;29;20836;-61
2022/04/19 10:58:17;;;;;;;4.13;3.83;;;9.50;99.00;;;;;;6132339;29;20582;-61
2022/04/19 11:01:30;;;;;;;4.23;3.93;;;9.60;99.20;;;;;;6131579;29;20494;-61
2022/04/19 11:04:38;;;;;;;5.17;4.87;;;9.70;99.20;;;;;;6131086;29;20546;-63
2022/04/19 11:07:42;;;;;;;4.33;4.03;;;9.90;98.70;;;;;;6130209;29;20475;-62
2022/04/19 11:10:47;;;;;;;4.13;3.83;;;9.90;98.30;;;;;;6130648;29;20984;-63
2022/04/19 11:14:36;;;;;;;4.87;4.30;;;9.90;98.20;;;;;;6129832;29;20566;-60
2022/04/19 11:17:42;;;;;;;4.30;4.00;;;10.00;97.70;;;;;;6131492;29;20468;-61
2022/04/19 11:20:46;;;;;;;4.13;3.83;;;9.90;98.60;;;;;;6131531;29;20468;-62
2022/04/19 11:23:51;;;;;;;3.63;3.43;;;9.90;98.50;;;;;;6132424;29;20479;-62
2022/04/19 11:26:55;;;;;;;4.33;3.90;;;9.80;97.90;;;;;;6132411;29;20498;-62
2022/04/19 11:29:59;;;;;;;3.67;3.40;;;9.80;98.70;;;;;;6131661;29;20542;-62
2022/04/19 11:33:04;;;;;;;3.93;3.63;;;9.90;98.70;;;;;;6131653;29;20487;-64
2022/04/19 11:36:09;;;;;;;3.50;3.30;;;10.10;98.00;;;;;;6131362;29;20502;-62
2022/04/19 11:46:43;;;;;;;4.47;4.10;;;10.40;97.90;;;;;;6131463;29;20812;-62
2022/04/19 11:49:36;;;;;;;3.60;3.30;;;11.00;95.70;;;;;;6115260;29;20956;-59
2022/04/19 11:52:40;;;;;;;3.97;3.73;;;11.20;95.80;;;;;;6131335;29;20474;-60
2022/04/19 11:55:51;;;;;;;3.70;2.77;;;11.40;95.30;;;;;;6130865;29;20991;-60
2022/04/19 11:59:00;;;;;;;4.23;3.90;;;11.30;95.10;;;;;;6130508;29;20472;-60
2022/04/19 12:02:05;;;;;;;3.73;2.97;;;11.20;95.80;;;;;;6131113;29;20471;-60
2022/04/19 12:05:09;;;;;;;3.07;2.87;;;11.20;95.80;;;;;;6131249;29;20535;-59
2022/04/19 12:08:12;;;;;;;4.30;4.00;;;11.10;95.60;;;;;;6130792;29;20483;-60
2022/04/19 12:11:17;;;;;;;5.40;5.03;;;11.10;95.90;;;;;;6130637;29;20799;-60
2022/04/19 12:14:26;;;;;;;4.10;3.70;;;11.00;96.30;;;;;;6130686;29;20488;-59
2022/04/19 12:17:30;;;;;;;4.33;4.13;;;10.80;96.00;;;;;;6130438;29;20495;-59
2022/04/19 12:20:43;;;;;;;4.37;4.07;;;10.60;96.20;;;;;;6130374;29;20805;-59
2022/04/19 12:23:52;;;;;;;3.80;3.60;;;10.50;96.10;;;;;;6129874;29;20558;-60
2022/04/19 12:27:06;;;;;;;4.50;4.20;;;10.40;96.60;;;;;;6130276;29;20786;-60
2022/04/19 12:30:12;;;;;;;4.30;4.00;;;10.30;97.50;;;;;;6129850;29;20484;-60
2022/04/19 12:33:16;;;;;;;4.60;4.27;;;10.20;97.60;;;;;;6130029;29;20527;-60
2022/04/19 12:36:22;;;;;;;3.80;3.60;;;10.00;97.70;;;;;;6129581;29;20550;-60
2022/04/19 12:39:26;;;;;;;4.47;4.13;;;9.90;98.50;;;;;;6125777;29;20480;-60
2022/04/19 12:42:29;;;;;;;4.77;4.40;;;10.20;98.10;;;;;;6128887;29;20799;-63
2022/04/19 12:45:36;;;;;;;3.87;3.57;;;10.40;96.30;;;;;;6113822;29;20479;-63
2022/04/19 12:48:39;;;;;;;3.80;3.60;;;10.60;95.70;;;;;;6127620;29;20480;-62
2022/04/19 12:51:42;;;;;;;3.50;3.20;;;11.00;95.80;;;;;;6126058;29;20514;-62
2022/04/19 12:55:00;;;;;;;3.90;3.60;;;11.30;95.30;;;;;;6122473;29;20479;-62
2022/04/19 12:58:08;;;;;;;3.40;3.20;;;11.20;94.80;;;;;;6115528;29;20571;-62
2022/04/19 13:01:13;;;;;;;3.90;3.60;;;10.90;94.50;;;;;;6115770;29;20479;-62
2022/04/19 13:04:17;;;;;;;4.33;4.03;;;10.80;95.30;;;;;;6117077;29;20509;-61
2022/04/19 13:14:01;;;;;;;3.73;3.43;;;11.60;94.20;;;;;;6128776;29;20480;-62
2022/04/19 13:17:08;;;;;;;3.70;3.30;;;11.80;93.10;;;;;;6128751;29;20479;-62
2022/04/19 13:20:12;;;;;;;3.60;3.40;;;11.90;92.90;;;;;;6105717;29;20488;-62
2022/04/19 13:23:15;;;;;;;2.90;2.70;;;12.10;92.90;;;;;;6105613;29;20480;-63
2022/04/19 13:26:18;;;;;;;3.00;2.80;;;12.20;92.20;;;;;;6105092;29;20472;-63
2022/04/19 13:29:22;;;;;;;3.60;3.30;;;12.10;91.30;;;;;;6105778;29;20822;-63
2022/04/19 13:32:27;;;;;;;3.60;3.30;;;12.00;91.70;;;;;;6111884;29;20495;-65
2022/04/19 13:35:30;;;;;;;5.03;4.23;;;11.90;92.30;;;;;;6113877;29;21012;-62
2022/04/19 13:38:35;;;;;;;4.07;3.77;;;11.70;92.90;;;;;;6113440;29;20476;-63
2022/04/19 13:41:41;;;;;;;4.70;4.40;;;11.50;93.30;;;;;;6098161;29;20485;-64
2022/04/19 13:44:44;;;;;;;4.70;4.40;;;11.20;94.40;;;;;;6103857;29;20504;-60
2022/04/19 13:47:49;;;;;;;4.43;4.03;;;11.00;95.20;;;;;;6113644;29;20477;-59
2022/04/19 13:50:54;;;;;;;5.87;5.47;;;10.90;95.70;;;;;;6114670;29;20487;-59
2022/04/19 13:53:57;;;;;;;4.93;4.43;;;10.60;96.20;;;;;;6116242;29;20578;-59
2022/04/19 13:57:02;;;;;;;5.60;5.10;;;10.50;97.20;;;;;;6136770;29;20475;-59
2022/04/19 14:00:06;;;;;;;4.57;4.27;;;10.40;96.80;;;;;;6136524;29;20475;-59
2022/04/19 14:03:11;;;;;;;4.33;4.03;;;10.20;96.70;;;;;;6136236;29;20472;-60
2022/04/19 14:06:14;;;;;;;4.80;4.50;;;10.30;97.10;;;;;;6136299;29;20497;-60
2022/04/19 14:09:17;;;;;;;4.67;4.37;;;10.20;96.80;;;;;;6135959;29;20491;-60
2022/04/19 14:12:21;;;;;;;4.20;3.90;;;10.30;97.40;;;;;;6136290;29;20541;-60
2022/04/19 14:15:24;;;;;;;4.33;4.00;;;10.20;97.30;;;;;;6129894;29;20494;-60
2022/04/19 14:18:29;;;;;;;4.43;4.13;;;10.20;98.00;;;;;;6134253;29;20486;-63
2022/04/19 14:21:32;;;;;;;5.07;4.67;;;10.20;98.10;;;;;;6134279;29;20485;-60
2022/04/19 14:24:35;;;;;;;4.20;3.90;;;10.10;97.90;;;;;;6133821;29;20960;-60
2022/04/19 14:27:38;;;;;;;5.20;4.70;;;9.90;98.50;;;;;;6133497;29;20530;-62
2022/04/19 14:34:04;;;;;;;4.30;4.10;;;9.70;99.60;;;;;;6136924;29;20470;-62
2022/04/19 14:37:07;;;;;;;4.73;4.43;;;9.70;99.50;;;;;;6136356;28;20502;-62
2022/04/19 14:40:10;;;;;;;4.47;4.17;;;9.60;99.90;;;;;;6137094;29;20478;-63
2022/04/19 14:43:14;;;;;;;4.30;4.00;;;9.60;99.80;;;;;;6133577;29;20970;-60
2022/04/19 14:46:17;;;;;;;4.07;3.67;;;9.60;99.70;;;;;;6128909;29;20586;-61
2022/04/19 14:49:21;;;;;;;4.50;3.80;;;9.80;99.90;;;;;;6138536;29;20486;-61
2022/04/19 14:52:25;;;;;;;4.83;4.47;;;9.90;99.90;;;;;;6132670;29;20475;-61
2022/04/19 14:55:28;;;;;;;4.90;4.50;;;10.00;99.40;;;;;;6132792;29;20486;-60
2022/04/19 14:58:31;;;;;;;5.27;4.97;;;10.10;99.30;;;;;;6132626;29;20487;-61
2022/04/19 15:01:38;;;;;;;4.67;4.27;;;10.20;99.20;;;;;;6132849;29;20467;-59
2022/04/19 15:04:43;;;;;;;4.53;4.23;;;10.20;98.60;;;;;;6132237;29;20535;-62
2022/04/19 15:07:47;;;;;;;5.13;4.63;;;10.20;98.40;;;;;;6132787;29;20481;-62
2022/04/19 15:10:51;;;;;;;6.73;5.10;;;10.20;98.80;;;;;;6132574;29;20476;-61
2022/04/19 15:13:54;;;;;;;4.93;4.53;;;10.20;98.60;;;;;;6131664;29;20472;-61
2022/04/19 15:16:58;;;;;;;5.80;5.30;;;10.20;98.90;;;;;;6132905;29;20475;-60
2022/04/19 15:20:02;;;;;;;5.47;4.97;;;10.20;98.90;;;;;;6131864;29;20562;-59
2022/04/19 15:23:06;;;;;;;5.47;5.13;;;10.10;99.00;;;;;;6132335;29;20482;-61
2022/04/19 15:26:09;;;;;;;5.23;4.73;;;9.90;99.90;;;;;;6132799;29;20485;-61
2022/04/19 15:29:12;;;;;;;5.60;5.20;;;9.80;99.90;;;;;;6133007;29;20495;-61
2022/04/19 15:32:17;;;;;;;6.30;5.90;;;9.70;99.90;;;;;;6132858;29;20990;-61
2022/04/19 15:35:21;;;;;;;6.50;6.00;;;9.60;99.90;;;;;;6131994;29;20475;-60
2022/04/19 15:38:26;;;;;;;6.07;5.47;;;9.40;99.90;;;;;;6132902;29;20503;-65
2022/04/19 15:41:29;;;;;;;6.10;5.60;;;9.30;99.90;;;;;;6133439;29;20981;-63
2022/04/19 15:44:32;;;;;;;6.73;6.20;;;9.20;99.90;;;;;;6144557;29;20556;-61
2022/04/19 15:47:39;;;;;;;6.13;5.63;;;9.10;99.90;;;;;;6138743;29;20480;-59
2022/04/19 15:50:45;;;;;;;7.20;6.53;;;9.20;99.90;;;;;;6124323;29;20498;-62
2022/04/19 15:53:48;;;;;;;6.90;6.30;;;9.20;99.90;;;;;;6132329;29;20835;-61
2022/04/19 15:56:51;;;;;;;5.90;5.50;;;9.30;99.90;;;;;;6131862;29;20479;-61
2022/04/19 15:59:54;;;;;;;6.93;6.43;;;9.20;99.90;;;;;;6131261;29;20498;-62
2022/04/19 16:02:58;;;;;;;6.27;5.87;;;9.20;99.90;;;;;;6130794;29;20509;-62
2022/04/19 16:06:03;;;;;;;6.50;6.00;;;9.20;99.90;;;;;;6130886;29;20532;-61
2022/04/19 16:09:06;;;;;;;6.67;6.17;;;9.30;99.90;;;;;;6130965;29;20235;-61
2022/04/19 16:12:10;;;;;;;4.60;4.30;;;9.30;99.90;;;;;;6130441;29;20490;-61
2022/04/19 16:15:14;;;;;;;4.10;3.80;;;9.30;99.90;;;;;;6130255;29;20476;-60
2022/04/19 16:25:00;;;;;;;2.90;2.60;;;9.30;99.90;;;;;;6130546;29;20456;-59
2022/04/19 16:28:04;;;;;;;2.17;1.97;;;9.30;99.90;;;;;;6131095;29;20472;-59
2022/04/19 16:31:08;;;;;;;3.10;1.80;;;9.10;99.90;;;;;;6130651;29;20468;-59
2022/04/19 16:34:11;;;;;;;1.97;1.87;;;9.10;99.90;;;;;;6129986;29;20494;-61
2022/04/19 16:37:22;;;;;;;3.07;2.87;;;9.00;99.90;;;;;;6130177;29;20990;-61
2022/04/19 16:40:25;;;;;;;2.03;1.93;;;9.00;99.90;;;;;;6131428;29;20476;-59
2022/04/19 16:43:28;;;;;;;2.33;2.10;;;9.10;99.90;;;;;;6132128;29;20471;-62
2022/04/19 16:46:31;;;;;;;1.93;1.83;;;9.10;99.90;;;;;;6131842;29;20994;-61
2022/04/19 16:49:35;;;;;;;2.70;2.20;;;9.10;99.90;;;;;;6129704;29;20486;-61
2022/04/19 16:52:41;;;;;;;3.40;3.10;;;9.10;99.90;;;;;;6125605;29;20475;-61
2022/04/19 16:55:45;;;;;;;3.83;3.53;;;9.10;99.90;;;;;;6129364;29;20500;-64
2022/04/19 16:58:48;;;;;;;3.93;3.03;;;9.00;99.90;;;;;;6129803;29;20482;-63
2022/04/19 17:01:51;;;;;;;2.50;2.40;;;9.00;99.90;;;;;;6129825;29;20491;-62